Time;durP1;ratioP1;P1;durP2;ratioP2;P2;SDS_P1;SDS_P2;PMS_P1;PMS_P2;Temp;Humidity;BMP_temperature;BMP_pressure;BME280_temperature;BME280_humidity;BME280_pressure;Samples;Min_cycle;Max_cycle;Signal;HPM_P1;HPM_P2
2022/01/14 00:01:36;;;;;;;20.27;9.50;;;-1.40;99.90;;;;;;4959072;28;20205;-80
2022/01/14 00:04:02;;;;;;;15.80;9.13;;;-1.40;99.90;;;;;;4976604;28;20193;-80
2022/01/14 00:06:28;;;;;;;20.00;10.00;;;-1.30;99.90;;;;;;4976730;28;20235;-80
2022/01/14 00:09:01;;;;;;;16.40;9.87;;;-1.20;99.90;;;;;;4976416;28;20206;-80
2022/01/14 00:11:30;;;;;;;15.53;9.73;;;-1.20;99.90;;;;;;4964444;28;20197;-79
2022/01/14 00:14:08;;;;;;;19.13;10.80;;;-1.30;99.90;;;;;;4962607;28;20189;-80
2022/01/14 00:16:34;;;;;;;15.60;9.40;;;-1.40;99.90;;;;;;4979488;28;20171;-79
2022/01/14 00:19:00;;;;;;;16.43;10.90;;;-1.50;99.90;;;;;;4980650;28;20246;-80
2022/01/14 00:21:27;;;;;;;16.67;10.17;;;-1.50;99.90;;;;;;4970177;28;20677;-79
2022/01/14 00:24:04;;;;;;;16.67;9.67;;;-1.60;99.90;;;;;;4979549;28;20224;-79
2022/01/14 00:32:05;;;;;;;13.37;9.00;;;-1.60;99.90;;;;;;4979235;28;20205;-79
2022/01/14 00:34:31;;;;;;;16.97;10.20;;;-1.70;99.90;;;;;;4980001;28;20263;-79
2022/01/14 00:36:58;;;;;;;18.20;10.30;;;-1.80;99.90;;;;;;4979782;28;20188;-80
2022/01/14 00:39:23;;;;;;;17.07;10.27;;;-1.90;99.90;;;;;;4978990;28;20268;-79
2022/01/14 00:41:50;;;;;;;20.40;10.87;;;-1.90;99.90;;;;;;4979088;28;20632;-79
2022/01/14 00:44:16;;;;;;;20.07;10.70;;;-1.90;99.90;;;;;;4979274;28;20174;-80
2022/01/14 00:46:44;;;;;;;18.00;10.60;;;-1.90;99.90;;;;;;4979523;28;20552;-80
2022/01/14 00:49:11;;;;;;;17.67;10.53;;;-1.90;99.90;;;;;;4977683;28;20203;-80
2022/01/14 00:51:37;;;;;;;20.70;11.57;;;-1.90;99.90;;;;;;4977506;28;20207;-80
2022/01/14 00:54:07;;;;;;;20.63;11.23;;;-2.00;99.90;;;;;;4978958;28;20304;-79
2022/01/14 00:59:14;;;;;;;22.97;11.07;;;-2.00;99.90;;;;;;4978871;28;20200;-80
2022/01/14 01:01:52;;;;;;;21.70;12.53;;;-1.90;99.90;;;;;;4978947;28;20772;-81
2022/01/14 01:04:29;;;;;;;24.07;11.93;;;-1.90;99.90;;;;;;4978709;28;20182;-80
2022/01/14 01:06:56;;;;;;;21.17;12.70;;;-2.00;99.90;;;;;;4979091;28;20179;-80
2022/01/14 01:09:24;;;;;;;23.30;12.93;;;-1.80;99.90;;;;;;4978929;28;20251;-80
2022/01/14 01:12:07;;;;;;;21.03;12.47;;;-1.90;99.90;;;;;;4977922;28;20183;-79
2022/01/14 01:14:45;;;;;;;27.33;14.17;;;-2.00;99.90;;;;;;4979014;28;20174;-80
2022/01/14 01:17:11;;;;;;;27.30;14.03;;;-2.10;99.90;;;;;;4977015;28;20190;-78
2022/01/14 01:19:37;;;;;;;18.00;12.07;;;-2.10;99.90;;;;;;4976850;28;20298;-80
2022/01/14 01:22:03;;;;;;;23.50;12.20;;;-2.10;99.90;;;;;;4977573;28;20191;-80
2022/01/14 01:24:29;;;;;;;24.70;13.23;;;-2.10;99.90;;;;;;4979348;28;20247;-79
2022/01/14 01:26:55;;;;;;;19.23;11.23;;;-2.10;99.90;;;;;;4978477;28;20210;-80
2022/01/14 01:31:54;;;;;;;20.07;11.37;;;-2.20;99.90;;;;;;4979566;28;20186;-79
2022/01/14 01:34:22;;;;;;;21.47;11.50;;;-2.20;99.90;;;;;;4978773;28;20178;-80
2022/01/14 01:36:51;;;;;;;24.27;13.23;;;-2.10;99.90;;;;;;4961420;28;20681;-79
2022/01/14 01:39:23;;;;;;;26.10;12.83;;;-2.40;99.90;;;;;;4978995;28;20741;-80
2022/01/14 01:41:55;;;;;;;28.40;14.10;;;-2.20;99.90;;;;;;4961580;28;20187;-80
2022/01/14 01:44:23;;;;;;;22.47;12.23;;;-2.20;99.90;;;;;;4978499;28;20269;-80
2022/01/14 01:46:50;;;;;;;20.87;11.83;;;-2.30;99.90;;;;;;4978891;28;20182;-79
2022/01/14 01:49:19;;;;;;;23.07;11.77;;;-2.30;99.90;;;;;;4978216;28;20202;-79
2022/01/14 01:51:47;;;;;;;20.37;11.67;;;-2.20;99.90;;;;;;4977927;28;20193;-80
2022/01/14 01:54:14;;;;;;;22.37;12.10;;;-2.20;99.90;;;;;;4978701;28;20260;-80
2022/01/14 01:56:40;;;;;;;19.13;11.30;;;-2.30;99.90;;;;;;4960115;28;20272;-81
2022/01/14 01:59:06;;;;;;;21.50;12.23;;;-2.30;99.90;;;;;;4987462;28;20202;-79
2022/01/14 02:01:32;;;;;;;21.30;11.50;;;-2.30;99.90;;;;;;4961054;28;20173;-80
2022/01/14 02:03:58;;;;;;;20.40;10.80;;;-2.30;99.90;;;;;;4978221;28;20178;-79
2022/01/14 02:06:24;;;;;;;21.07;11.90;;;-2.20;99.90;;;;;;4977530;28;20654;-80
2022/01/14 02:08:51;;;;;;;22.80;11.07;;;-2.20;99.90;;;;;;4978573;28;20247;-80
2022/01/14 02:11:17;;;;;;;21.00;12.40;;;-2.10;99.90;;;;;;4961587;28;20284;-80
2022/01/14 02:13:43;;;;;;;21.73;11.97;;;-2.20;99.90;;;;;;4978669;28;20179;-80
2022/01/14 02:19:24;;;;;;;20.57;11.77;;;-2.30;99.90;;;;;;4978274;28;20620;-79
2022/01/14 02:24:21;;;;;;;25.00;12.20;;;-2.40;99.90;;;;;;4978344;28;20254;-80
2022/01/14 02:26:50;;;;;;;21.90;11.67;;;-2.50;99.90;;;;;;4978124;28;20567;-79
2022/01/14 02:29:17;;;;;;;19.33;11.10;;;-2.40;99.90;;;;;;4977901;28;20624;-80
2022/01/14 02:31:44;;;;;;;23.43;12.80;;;-2.50;99.90;;;;;;4961114;28;20205;-80
2022/01/14 02:34:11;;;;;;;22.60;11.23;;;-2.50;99.90;;;;;;4960133;28;20169;-80
2022/01/14 02:36:40;;;;;;;21.10;11.30;;;-2.50;99.90;;;;;;4978104;28;20197;-80
2022/01/14 02:39:06;;;;;;;19.63;12.03;;;-2.40;99.90;;;;;;4977095;28;20243;-81
2022/01/14 02:41:38;;;;;;;22.00;12.27;;;-2.10;99.90;;;;;;4977882;28;20539;-80
2022/01/14 02:44:17;;;;;;;24.33;12.23;;;-2.20;99.90;;;;;;4977357;28;20186;-78
2022/01/14 02:46:52;;;;;;;23.37;12.23;;;-2.10;99.90;;;;;;4960563;28;20337;-80
2022/01/14 02:49:18;;;;;;;21.70;12.40;;;-2.10;99.90;;;;;;4977735;28;20210;-81
2022/01/14 02:51:44;;;;;;;19.20;11.43;;;-2.20;99.90;;;;;;4977778;28;20205;-79
2022/01/14 02:54:13;;;;;;;24.97;11.93;;;-2.10;99.90;;;;;;4977174;28;20197;-80
2022/01/14 02:56:42;;;;;;;26.00;12.70;;;-2.50;99.90;;;;;;4959610;28;20197;-79
2022/01/14 02:59:10;;;;;;;22.13;12.43;;;-2.50;99.90;;;;;;4960186;28;20554;-80
2022/01/14 03:01:36;;;;;;;24.10;12.63;;;-2.60;99.90;;;;;;4960041;28;20650;-80
2022/01/14 03:04:03;;;;;;;22.13;12.47;;;-2.60;99.90;;;;;;4977225;28;20178;-80
2022/01/14 03:06:30;;;;;;;22.73;12.20;;;-2.60;99.90;;;;;;4959311;28;20263;-79
2022/01/14 03:08:57;;;;;;;23.67;12.63;;;-2.50;99.90;;;;;;4959834;28;20213;-80
2022/01/14 03:11:30;;;;;;;28.07;12.63;;;-2.50;99.90;;;;;;4979965;28;20203;-80
2022/01/14 03:13:57;;;;;;;26.37;12.70;;;-2.60;99.90;;;;;;4957501;28;20206;-80
2022/01/14 03:16:23;;;;;;;24.73;12.47;;;-2.60;99.90;;;;;;4983043;28;20262;-81
2022/01/14 03:18:52;;;;;;;21.17;11.30;;;-2.40;99.90;;;;;;4975934;28;20202;-81
2022/01/14 03:21:27;;;;;;;27.77;13.03;;;-2.30;99.90;;;;;;4966582;28;20615;-79
2022/01/14 03:24:03;;;;;;;24.37;12.73;;;-2.40;99.90;;;;;;4976037;28;20567;-79
2022/01/14 03:26:29;;;;;;;22.67;11.87;;;-2.50;99.90;;;;;;4976554;28;20204;-79
2022/01/14 03:28:55;;;;;;;20.43;11.57;;;-2.50;99.90;;;;;;4975941;28;20236;-81
2022/01/14 03:31:21;;;;;;;23.73;11.27;;;-2.50;99.90;;;;;;4974198;28;20229;-79
2022/01/14 03:33:47;;;;;;;20.57;11.83;;;-2.40;99.90;;;;;;4974456;28;20173;-80
2022/01/14 03:36:13;;;;;;;19.80;12.27;;;-2.40;99.90;;;;;;4976604;28;20167;-80
2022/01/14 03:38:39;;;;;;;22.73;12.87;;;-2.50;99.90;;;;;;4976864;28;20227;-80
2022/01/14 03:41:06;;;;;;;22.63;12.80;;;-2.60;99.90;;;;;;4975634;28;20209;-80
2022/01/14 03:43:32;;;;;;;25.40;13.37;;;-2.70;99.90;;;;;;4977299;28;20190;-80
2022/01/14 03:45:58;;;;;;;21.30;13.00;;;-2.60;99.90;;;;;;4980208;28;20203;-80
2022/01/14 03:48:24;;;;;;;24.90;13.97;;;-2.70;99.90;;;;;;4983949;28;20210;-80
2022/01/14 03:50:50;;;;;;;25.10;12.70;;;-2.70;99.90;;;;;;4990388;28;20191;-80
2022/01/14 03:53:16;;;;;;;28.00;14.33;;;-2.80;99.90;;;;;;4980936;28;20607;-80
2022/01/14 03:55:43;;;;;;;30.83;14.37;;;-2.70;99.90;;;;;;4979563;28;20587;-81
2022/01/14 03:58:09;;;;;;;30.33;14.90;;;-2.70;99.90;;;;;;4979279;28;20572;-79
2022/01/14 04:00:36;;;;;;;26.30;15.03;;;-2.80;99.90;;;;;;4981127;28;20177;-79
2022/01/14 04:03:03;;;;;;;26.37;14.23;;;-2.80;99.90;;;;;;4981623;28;20204;-79
2022/01/14 04:05:29;;;;;;;26.70;14.63;;;-2.80;99.90;;;;;;4980453;28;20698;-79
2022/01/14 04:07:55;;;;;;;28.83;15.10;;;-2.80;99.90;;;;;;4980293;28;20213;-80
2022/01/14 04:10:22;;;;;;;28.63;14.87;;;-2.70;99.90;;;;;;4979791;28;20685;-81
2022/01/14 04:15:41;;;;;;;27.90;14.27;;;-2.60;99.90;;;;;;4981223;28;20189;-80
2022/01/14 04:18:13;;;;;;;28.13;15.00;;;-2.70;99.90;;;;;;4979111;28;20719;-79
2022/01/14 04:20:40;;;;;;;33.50;16.03;;;-2.80;99.90;;;;;;4979146;28;20563;-80
2022/01/14 04:23:07;;;;;;;31.87;14.63;;;-2.80;99.90;;;;;;4980790;28;20609;-80
2022/01/14 04:25:34;;;;;;;27.03;14.03;;;-2.70;99.90;;;;;;4980593;28;20223;-80
2022/01/14 04:28:01;;;;;;;24.10;13.43;;;-2.70;99.90;;;;;;4980708;28;20551;-80
2022/01/14 04:30:27;;;;;;;27.57;14.03;;;-2.60;99.90;;;;;;4979117;28;20272;-79
2022/01/14 04:32:52;;;;;;;27.33;14.27;;;-2.50;99.90;;;;;;4979693;28;20177;-80
2022/01/14 04:35:18;;;;;;;25.17;13.53;;;-2.50;99.90;;;;;;4980984;28;20205;-80
2022/01/14 04:37:43;;;;;;;23.53;13.57;;;-2.40;99.90;;;;;;4979601;28;20642;-80
2022/01/14 04:40:10;;;;;;;20.67;12.53;;;-2.30;99.90;;;;;;4980415;28;20258;-80
2022/01/14 04:42:37;;;;;;;24.67;12.90;;;-2.30;99.90;;;;;;4980322;28;20181;-80
2022/01/14 04:45:04;;;;;;;21.00;13.03;;;-2.30;99.90;;;;;;4980326;28;20721;-80
2022/01/14 04:47:45;;;;;;;29.10;13.53;;;-2.40;99.90;;;;;;4980194;28;20702;-79
2022/01/14 04:50:16;;;;;;;28.47;13.23;;;-2.60;99.90;;;;;;4980135;28;20248;-81
2022/01/14 04:52:43;;;;;;;21.23;12.97;;;-2.60;99.90;;;;;;4980265;28;20208;-80
2022/01/14 04:55:11;;;;;;;23.33;12.93;;;-2.60;99.90;;;;;;4980303;28;20179;-79
2022/01/14 04:57:38;;;;;;;24.43;13.27;;;-2.70;99.90;;;;;;4979767;28;20245;-79
2022/01/14 05:00:14;;;;;;;27.87;14.13;;;-2.80;99.90;;;;;;4980468;28;20200;-78
2022/01/14 05:02:40;;;;;;;24.03;13.37;;;-2.90;99.90;;;;;;4977630;28;20706;-79
2022/01/14 05:05:08;;;;;;;22.50;12.37;;;-3.00;99.90;;;;;;4980691;28;20187;-80
2022/01/14 05:07:33;;;;;;;31.17;13.57;;;-3.00;99.90;;;;;;4979103;28;20179;-80
2022/01/14 05:12:29;;;;;;;31.27;14.17;;;-3.10;99.90;;;;;;4980192;28;20664;-80
2022/01/14 05:14:54;;;;;;;28.63;14.40;;;-3.10;99.90;;;;;;4980088;28;20632;-81
2022/01/14 05:17:20;;;;;;;26.63;14.87;;;-3.10;99.90;;;;;;4979749;28;20182;-80
2022/01/14 05:19:46;;;;;;;30.37;15.10;;;-3.20;99.90;;;;;;4980035;28;20249;-79
2022/01/14 05:22:12;;;;;;;26.47;14.50;;;-3.20;99.90;;;;;;4979053;28;20195;-79
2022/01/14 05:24:38;;;;;;;25.10;13.33;;;-3.20;99.90;;;;;;4979736;28;20262;-80
2022/01/14 05:27:03;;;;;;;34.07;15.43;;;-3.10;99.90;;;;;;4979434;28;20239;-80
2022/01/14 05:29:29;;;;;;;25.70;13.70;;;-3.10;99.90;;;;;;4977680;28;20196;-79
2022/01/14 05:32:03;;;;;;;27.23;14.63;;;-3.10;99.90;;;;;;4979520;28;20173;-80
2022/01/14 05:34:33;;;;;;;29.97;14.37;;;-3.00;99.90;;;;;;4980389;28;20166;-79
2022/01/14 05:37:00;;;;;;;29.27;14.17;;;-3.10;99.90;;;;;;4978883;28;20764;-81
2022/01/14 05:39:26;;;;;;;28.87;15.50;;;-3.00;99.90;;;;;;4975907;28;20211;-80
2022/01/14 05:41:53;;;;;;;27.70;13.93;;;-2.90;99.90;;;;;;4980038;28;20173;-80
2022/01/14 05:44:19;;;;;;;26.23;14.63;;;-2.80;99.90;;;;;;4980166;28;20186;-80
2022/01/14 05:46:44;;;;;;;25.93;14.57;;;-2.70;99.90;;;;;;4978411;28;20213;-80
2022/01/14 05:49:10;;;;;;;23.60;13.80;;;-2.70;99.90;;;;;;4979022;28;20213;-80
2022/01/14 05:51:36;;;;;;;30.30;16.80;;;-2.60;99.90;;;;;;4984288;28;20202;-80
2022/01/14 05:54:02;;;;;;;29.83;16.03;;;-2.60;99.90;;;;;;4979957;28;20177;-80
2022/01/14 05:56:27;;;;;;;26.47;14.77;;;-2.60;99.90;;;;;;4978649;28;20253;-80
2022/01/14 05:58:53;;;;;;;26.73;14.03;;;-2.50;99.90;;;;;;4977849;28;20267;-81
2022/01/14 06:01:19;;;;;;;28.57;15.90;;;-2.50;99.90;;;;;;4979048;28;20256;-80
2022/01/14 06:03:44;;;;;;;31.70;15.37;;;-2.50;99.90;;;;;;4976258;28;20190;-80
2022/01/14 06:06:10;;;;;;;30.47;14.77;;;-2.50;99.90;;;;;;4978784;28;20196;-80
2022/01/14 06:08:36;;;;;;;26.50;15.80;;;-2.50;99.90;;;;;;4979131;28;20209;-80
2022/01/14 06:11:01;;;;;;;31.07;15.00;;;-2.50;99.90;;;;;;4977881;28;20202;-80
2022/01/14 06:13:27;;;;;;;35.87;15.30;;;-2.50;99.90;;;;;;4979169;28;20226;-81
2022/01/14 06:15:53;;;;;;;27.87;14.40;;;-2.50;99.90;;;;;;4978208;28;20177;-80
2022/01/14 06:18:18;;;;;;;32.97;14.30;;;-2.40;99.90;;;;;;4976742;28;20195;-79
2022/01/14 06:20:44;;;;;;;22.40;12.87;;;-2.50;99.90;;;;;;4974905;28;20207;-80
2022/01/14 06:23:10;;;;;;;27.37;14.13;;;-2.50;99.90;;;;;;4972193;28;20227;-79
2022/01/14 06:25:35;;;;;;;23.60;13.80;;;-2.60;99.90;;;;;;4972592;28;20173;-81
2022/01/14 06:28:01;;;;;;;23.20;13.97;;;-2.60;99.90;;;;;;4971051;28;20179;-80
2022/01/14 06:30:27;;;;;;;23.43;12.70;;;-2.80;99.90;;;;;;4961373;28;20251;-79
2022/01/14 06:32:53;;;;;;;23.70;13.23;;;-2.80;99.90;;;;;;4956552;28;20200;-79
2022/01/14 06:35:20;;;;;;;22.10;12.57;;;-2.90;99.90;;;;;;4951436;28;20245;-81
2022/01/14 06:37:46;;;;;;;27.07;13.93;;;-2.80;99.90;;;;;;4960452;28;20610;-80
2022/01/14 06:40:12;;;;;;;24.73;14.27;;;-2.80;99.90;;;;;;4961768;28;20176;-79
2022/01/14 06:42:37;;;;;;;22.97;13.03;;;-2.80;99.90;;;;;;4959038;28;20188;-80
2022/01/14 06:45:05;;;;;;;26.67;14.73;;;-2.60;99.90;;;;;;4968451;28;20241;-79
2022/01/14 06:47:31;;;;;;;25.30;14.03;;;-2.70;99.90;;;;;;4978681;28;20177;-80
2022/01/14 06:49:57;;;;;;;24.97;13.77;;;-2.80;99.90;;;;;;4977245;28;20587;-80
2022/01/14 06:52:23;;;;;;;23.33;13.13;;;-2.80;99.90;;;;;;4977987;28;20226;-80
2022/01/14 06:54:49;;;;;;;24.93;12.60;;;-2.80;99.90;;;;;;4959473;28;20188;-78
2022/01/14 06:57:15;;;;;;;25.40;12.90;;;-2.70;99.90;;;;;;4959747;28;20179;-79
2022/01/14 06:59:41;;;;;;;20.37;11.20;;;-2.80;99.90;;;;;;4977854;28;20240;-80
2022/01/14 07:02:06;;;;;;;20.83;11.40;;;-2.80;99.90;;;;;;4980534;28;20179;-80
2022/01/14 07:04:33;;;;;;;22.07;11.23;;;-2.70;99.90;;;;;;4970736;28;20171;-80
2022/01/14 07:06:59;;;;;;;22.57;12.33;;;-2.70;99.90;;;;;;4976344;28;20576;-80
2022/01/14 07:09:25;;;;;;;22.23;11.90;;;-2.60;99.90;;;;;;4959341;28;20204;-80
2022/01/14 07:11:59;;;;;;;15.03;9.93;;;-2.60;99.90;;;;;;4977072;28;20205;-80
2022/01/14 07:14:25;;;;;;;17.63;10.83;;;-2.70;99.90;;;;;;4977251;28;20225;-79
2022/01/14 07:16:51;;;;;;;17.03;10.30;;;-2.80;99.90;;;;;;4966567;28;20220;-79
2022/01/14 07:19:20;;;;;;;14.37;9.40;;;-3.00;99.90;;;;;;4975539;28;20664;-80
2022/01/14 07:21:46;;;;;;;13.87;9.27;;;-2.80;99.90;;;;;;4976653;28;20193;-80
2022/01/14 07:24:13;;;;;;;15.87;10.20;;;-2.80;99.90;;;;;;4976850;28;20189;-82
2022/01/14 07:26:39;;;;;;;15.63;9.07;;;-2.70;99.90;;;;;;4949563;28;20176;-80
2022/01/14 07:29:05;;;;;;;15.33;9.80;;;-2.70;99.90;;;;;;4976317;28;20216;-80
2022/01/14 07:31:31;;;;;;;15.83;9.30;;;-2.70;99.90;;;;;;4976994;28;20202;-80
2022/01/14 07:33:57;;;;;;;14.20;9.23;;;-2.70;99.90;;;;;;4976365;28;20280;-80
2022/01/14 07:36:22;;;;;;;18.43;9.70;;;-2.60;99.90;;;;;;4976510;28;20186;-80
2022/01/14 07:38:48;;;;;;;15.03;9.13;;;-2.60;99.90;;;;;;4976936;28;20205;-79
2022/01/14 07:41:14;;;;;;;17.23;9.87;;;-2.60;99.90;;;;;;4962679;28;20182;-81
2022/01/14 07:43:48;;;;;;;14.87;9.77;;;-2.50;99.90;;;;;;4983093;28;20177;-80
2022/01/14 07:46:15;;;;;;;17.17;9.83;;;-2.50;99.90;;;;;;4995479;28;20355;-81
2022/01/14 07:48:41;;;;;;;15.73;9.50;;;-2.50;99.90;;;;;;4966720;28;20351;-80
2022/01/14 07:51:08;;;;;;;15.10;8.87;;;-2.40;99.90;;;;;;4967872;28;20194;-81
2022/01/14 07:53:34;;;;;;;15.57;8.83;;;-2.40;99.90;;;;;;4986801;28;20165;-80
2022/01/14 07:56:00;;;;;;;15.40;9.57;;;-2.30;99.90;;;;;;4985473;28;20233;-81
2022/01/14 07:58:26;;;;;;;15.10;9.30;;;-2.30;99.90;;;;;;4969179;28;20198;-81
2022/01/14 08:00:52;;;;;;;14.10;9.67;;;-2.20;99.90;;;;;;4987383;28;20752;-82
2022/01/14 08:03:18;;;;;;;15.83;10.17;;;-2.20;99.90;;;;;;4969787;28;20184;-80
2022/01/14 08:05:45;;;;;;;11.90;8.93;;;-2.20;99.90;;;;;;4986279;28;20375;-81
2022/01/14 08:08:10;;;;;;;19.53;9.63;;;-2.20;99.90;;;;;;4985786;28;20202;-81
2022/01/14 08:10:36;;;;;;;17.83;9.73;;;-2.20;99.90;;;;;;4968829;28;20206;-80
2022/01/14 08:13:03;;;;;;;13.43;9.83;;;-2.30;99.90;;;;;;4985094;28;20505;-81
2022/01/14 08:15:29;;;;;;;14.57;9.77;;;-2.10;99.90;;;;;;4984421;28;20180;-80
2022/01/14 08:17:55;;;;;;;19.80;9.80;;;-2.20;99.90;;;;;;4985153;28;20186;-80
2022/01/14 08:20:21;;;;;;;16.03;10.10;;;-2.10;99.90;;;;;;4984275;28;20185;-81
2022/01/14 08:22:46;;;;;;;17.33;10.53;;;-2.20;99.90;;;;;;4966798;28;20201;-82
2022/01/14 08:25:12;;;;;;;18.87;11.83;;;-2.10;99.90;;;;;;4967565;28;20181;-81
2022/01/14 08:27:39;;;;;;;15.50;10.43;;;-2.00;99.90;;;;;;4967079;28;20182;-80
2022/01/14 08:30:06;;;;;;;20.90;11.50;;;-1.80;99.90;;;;;;4985071;28;20231;-80
2022/01/14 08:32:32;;;;;;;20.40;13.30;;;-1.90;99.90;;;;;;4987982;28;20202;-80
2022/01/14 08:34:57;;;;;;;21.23;12.27;;;-1.90;99.90;;;;;;4988261;28;20171;-80
2022/01/14 08:37:23;;;;;;;18.07;12.07;;;-1.90;99.90;;;;;;4988309;28;20182;-80
2022/01/14 08:39:49;;;;;;;22.00;12.53;;;-1.90;99.90;;;;;;4970617;28;20200;-81
2022/01/14 08:42:15;;;;;;;23.37;12.17;;;-1.80;99.90;;;;;;4988120;28;20203;-80
2022/01/14 08:44:42;;;;;;;24.87;13.77;;;-1.80;99.90;;;;;;4987584;28;20541;-79
2022/01/14 08:47:09;;;;;;;21.23;12.87;;;-1.80;99.90;;;;;;4989195;28;20202;-81
2022/01/14 08:49:43;;;;;;;19.33;11.97;;;-1.70;99.90;;;;;;4988498;28;20201;-80
2022/01/14 08:52:10;;;;;;;18.87;12.17;;;-1.60;99.90;;;;;;4990054;28;20233;-80
2022/01/14 08:54:36;;;;;;;20.77;13.20;;;-1.60;99.90;;;;;;4972547;28;20184;-81
2022/01/14 08:57:03;;;;;;;26.57;14.27;;;-1.50;99.90;;;;;;4989191;28;20179;-79
2022/01/14 08:59:32;;;;;;;27.63;14.40;;;-1.50;99.90;;;;;;4988917;28;20218;-81
2022/01/14 09:01:59;;;;;;;24.83;14.67;;;-1.40;99.90;;;;;;4972395;28;20178;-81
2022/01/14 09:04:25;;;;;;;25.53;14.97;;;-1.30;99.90;;;;;;4989712;28;20190;-81
2022/01/14 09:06:50;;;;;;;28.60;15.80;;;-1.20;99.90;;;;;;4989146;28;20259;-81
2022/01/14 09:09:19;;;;;;;32.40;16.97;;;-1.40;99.90;;;;;;4989050;28;20195;-81
2022/01/14 09:11:45;;;;;;;26.43;16.43;;;-1.40;99.90;;;;;;4971392;28;20202;-81
2022/01/14 09:14:10;;;;;;;33.63;17.07;;;-1.30;99.90;;;;;;4987587;28;20550;-81
2022/01/14 09:16:36;;;;;;;38.87;21.37;;;-1.20;99.90;;;;;;4986661;28;20171;-81
2022/01/14 09:19:03;;;;;;;46.17;22.33;;;-1.20;99.90;;;;;;4986865;28;20200;-81
2022/01/14 09:21:28;;;;;;;46.47;23.23;;;-1.20;99.90;;;;;;4977500;28;20686;-80
2022/01/14 09:24:03;;;;;;;39.27;21.37;;;-1.00;99.90;;;;;;4988396;28;20183;-80
2022/01/14 09:26:33;;;;;;;45.50;23.33;;;-0.70;99.90;;;;;;4987539;28;20495;-81
2022/01/14 09:29:00;;;;;;;44.87;23.83;;;-1.00;99.90;;;;;;4988922;28;20199;-80
2022/01/14 09:31:26;;;;;;;47.63;27.10;;;-0.90;99.90;;;;;;4988921;28;20263;-80
2022/01/14 09:33:52;;;;;;;53.87;25.90;;;-0.70;99.90;;;;;;4988537;28;20176;-82
2022/01/14 09:36:18;;;;;;;48.27;26.33;;;-0.70;99.90;;;;;;4986328;28;20225;-81
2022/01/14 09:38:44;;;;;;;55.63;27.47;;;-0.60;99.90;;;;;;4986244;28;20265;-81
2022/01/14 09:41:12;;;;;;;52.87;26.30;;;-0.50;99.90;;;;;;4985728;28;20236;-80
2022/01/14 09:43:39;;;;;;;53.80;27.97;;;-0.40;99.90;;;;;;4974773;28;20176;-80
2022/01/14 09:46:08;;;;;;;54.57;27.37;;;-0.30;99.90;;;;;;4992514;28;20179;-81
2022/01/14 09:48:35;;;;;;;55.00;28.47;;;-0.30;99.90;;;;;;4984601;28;20406;-82
2022/01/14 09:51:02;;;;;;;53.00;26.23;;;-0.20;99.90;;;;;;4991577;28;20208;-81
2022/01/14 09:53:30;;;;;;;59.50;29.70;;;-0.30;99.90;;;;;;4997813;28;20198;-81
2022/01/14 09:55:56;;;;;;;54.67;27.10;;;-0.30;99.90;;;;;;4982712;28;20184;-82
2022/01/14 09:58:26;;;;;;;55.23;28.27;;;-0.20;99.90;;;;;;4977953;28;20263;-82
2022/01/14 10:01:09;;;;;;;66.80;29.87;;;-0.20;99.90;;;;;;4987631;28;20188;-82
2022/01/14 10:03:46;;;;;;;61.80;31.70;;;-0.20;99.90;;;;;;4987563;28;20183;-81
2022/01/14 10:06:12;;;;;;;57.87;29.00;;;-0.10;99.90;;;;;;4978504;28;20327;-82
2022/01/14 10:08:37;;;;;;;55.77;29.23;;;-0.10;99.90;;;;;;4986549;28;20200;-84
2022/01/14 10:11:04;;;;;;;55.03;29.40;;;0.00;99.90;;;;;;4975210;28;20236;-81
2022/01/14 10:13:32;;;;;;;60.67;29.90;;;0.10;99.90;;;;;;4979800;28;20237;-82
2022/01/14 10:16:04;;;;;;;51.83;28.13;;;0.10;99.90;;;;;;4983438;28;20264;-82
2022/01/14 10:18:33;;;;;;;55.13;29.03;;;0.20;99.90;;;;;;4981302;28;20200;-80
2022/01/14 10:21:07;;;;;;;54.33;28.90;;;0.30;99.90;;;;;;4974407;28;20570;-82
2022/01/14 10:23:53;;;;;;;52.43;28.33;;;0.40;99.90;;;;;;4969589;28;20175;-81
2022/01/14 10:26:20;;;;;;;53.27;28.97;;;0.60;99.90;;;;;;4989199;28;20176;-82
2022/01/14 10:28:59;;;;;;;53.40;28.97;;;0.80;99.90;;;;;;4988327;28;20280;-82
2022/01/14 10:31:33;;;;;;;49.90;27.37;;;1.10;99.90;;;;;;4973983;28;20200;-80
2022/01/14 10:34:14;;;;;;;52.43;28.63;;;1.10;99.90;;;;;;4975526;28;20190;-80
2022/01/14 10:36:43;;;;;;;51.93;28.43;;;1.20;99.90;;;;;;4960550;28;20174;-82
2022/01/14 10:39:45;;;;;;;53.27;28.90;;;1.10;99.90;;;;;;4978940;28;20193;-82
2022/01/14 10:42:25;;;;;;;53.43;27.40;;;1.00;99.90;;;;;;4969108;28;20253;-83
2022/01/14 10:44:52;;;;;;;55.80;29.93;;;1.00;99.90;;;;;;4980125;28;20582;-81
2022/01/14 10:47:20;;;;;;;60.57;31.67;;;1.10;99.90;;;;;;4980983;28;20180;-82
2022/01/14 10:49:47;;;;;;;52.70;29.07;;;1.30;99.90;;;;;;4980375;28;20249;-82
2022/01/14 10:52:22;;;;;;;58.13;31.63;;;1.30;99.90;;;;;;4980206;28;20224;-82
2022/01/14 10:54:53;;;;;;;83.30;47.57;;;1.40;99.90;;;;;;4978007;28;20180;-81
2022/01/14 10:57:20;;;;;;;60.70;29.93;;;1.50;99.90;;;;;;4977446;28;20231;-81
2022/01/14 10:59:47;;;;;;;58.07;30.90;;;1.60;99.90;;;;;;4960815;28;20574;-81
2022/01/14 11:02:33;;;;;;;64.10;32.33;;;1.80;99.90;;;;;;4970949;28;20172;-81
2022/01/14 11:05:20;;;;;;;70.70;39.53;;;2.00;99.90;;;;;;4976092;28;20228;-81
2022/01/14 11:07:48;;;;;;;58.43;30.87;;;1.80;99.90;;;;;;4958495;28;20695;-82
2022/01/14 11:10:19;;;;;;;60.23;30.03;;;2.10;99.90;;;;;;4977779;28;20264;-81
2022/01/14 11:12:46;;;;;;;61.30;30.67;;;1.80;99.90;;;;;;4973703;28;20204;-80
2022/01/14 11:15:13;;;;;;;63.83;32.43;;;1.80;99.90;;;;;;4963390;28;20177;-82
2022/01/14 11:17:41;;;;;;;61.87;31.90;;;2.10;99.90;;;;;;4974017;28;20544;-81
2022/01/14 11:20:11;;;;;;;63.27;32.87;;;2.20;99.90;;;;;;4979173;28;20209;-81
2022/01/14 11:25:21;;;;;;;62.80;33.70;;;2.90;99.90;;;;;;4974291;28;20193;-82
2022/01/14 11:27:58;;;;;;;63.53;32.43;;;2.80;99.90;;;;;;4981683;28;20208;-81
2022/01/14 11:30:38;;;;;;;59.47;31.80;;;3.00;99.90;;;;;;4977700;28;20196;-82
2022/01/14 11:33:05;;;;;;;63.13;33.07;;;3.30;99.90;;;;;;4960278;28;20233;-81
2022/01/14 11:35:33;;;;;;;60.00;31.97;;;3.40;99.90;;;;;;4977323;28;20178;-81
2022/01/14 11:38:00;;;;;;;61.20;32.40;;;3.40;99.90;;;;;;4981654;28;20193;-82
2022/01/14 11:40:26;;;;;;;67.27;32.90;;;3.60;99.90;;;;;;4974218;28;21186;-83
2022/01/14 11:42:58;;;;;;;60.13;32.13;;;3.70;99.90;;;;;;4964492;28;20239;-82
2022/01/14 11:45:40;;;;;;;60.27;31.90;;;3.80;99.90;;;;;;4979317;28;20713;-83
2022/01/14 11:48:06;;;;;;;60.10;32.30;;;3.90;99.90;;;;;;4980576;28;20202;-81
2022/01/14 11:50:31;;;;;;;59.93;31.03;;;4.00;99.90;;;;;;4966208;28;20744;-82
2022/01/14 11:53:03;;;;;;;63.77;32.87;;;4.50;99.90;;;;;;4964166;28;20175;-82
2022/01/14 11:55:32;;;;;;;54.87;30.77;;;3.90;99.90;;;;;;4976770;28;20176;-81
2022/01/14 11:58:00;;;;;;;55.10;31.50;;;4.10;99.90;;;;;;4964689;28;20203;-82
2022/01/14 12:00:30;;;;;;;59.93;32.27;;;4.00;99.90;;;;;;4960291;28;20178;-82
2022/01/14 12:02:57;;;;;;;58.00;32.00;;;4.00;99.90;;;;;;4980814;28;20207;-82
2022/01/14 12:05:25;;;;;;;57.63;31.40;;;4.10;99.90;;;;;;4981194;28;20750;-82
2022/01/14 12:08:07;;;;;;;58.73;33.43;;;4.00;99.90;;;;;;4984531;28;20236;-81
2022/01/14 12:10:36;;;;;;;62.63;32.60;;;4.10;99.90;;;;;;4987576;28;20218;-80
2022/01/14 12:13:23;;;;;;;58.60;32.60;;;3.80;99.90;;;;;;4987336;28;20179;-81
2022/01/14 12:16:02;;;;;;;56.67;31.27;;;3.80;99.90;;;;;;4984282;28;20171;-81
2022/01/14 12:18:49;;;;;;;57.43;31.70;;;3.80;99.90;;;;;;4983573;28;20199;-79
2022/01/14 12:21:17;;;;;;;67.00;36.70;;;3.80;99.90;;;;;;4986364;28;20192;-80
2022/01/14 12:23:46;;;;;;;51.83;30.43;;;3.60;99.90;;;;;;4985172;28;20187;-81
2022/01/14 12:26:15;;;;;;;58.23;31.50;;;3.70;99.90;;;;;;4980834;28;20178;-81
2022/01/14 12:28:41;;;;;;;52.07;29.13;;;3.70;99.90;;;;;;4973875;28;20680;-81
2022/01/14 12:31:08;;;;;;;50.57;30.83;;;3.80;99.90;;;;;;4968088;28;20187;-82
2022/01/14 12:33:45;;;;;;;56.63;30.43;;;4.20;99.90;;;;;;4968761;28;20173;-82
2022/01/14 12:36:13;;;;;;;57.57;29.30;;;3.70;99.90;;;;;;4968923;28;20786;-84
2022/01/14 12:38:41;;;;;;;52.67;29.23;;;3.80;99.90;;;;;;4967328;28;20663;-81
2022/01/14 12:41:26;;;;;;;53.30;29.37;;;3.90;99.90;;;;;;4968323;28;20173;-81
2022/01/14 12:43:57;;;;;;;54.60;29.13;;;4.00;99.90;;;;;;4971018;28;20647;-82
2022/01/14 12:49:09;;;;;;;59.50;32.23;;;4.00;99.90;;;;;;4973299;28;20198;-81
2022/01/14 12:51:36;;;;;;;57.03;30.90;;;4.10;99.90;;;;;;4968001;28;20675;-82
2022/01/14 12:54:05;;;;;;;53.73;30.33;;;4.10;99.90;;;;;;4961738;28;20183;-81
2022/01/14 12:56:36;;;;;;;62.57;32.03;;;4.00;99.90;;;;;;4989452;28;20167;-82
2022/01/14 12:59:06;;;;;;;59.10;32.17;;;4.30;99.90;;;;;;4969076;28;20210;-82
2022/01/14 13:01:37;;;;;;;54.77;31.13;;;4.00;99.90;;;;;;4967168;28;20525;-81
2022/01/14 13:04:12;;;;;;;53.10;31.27;;;4.00;99.90;;;;;;4983621;28;20183;-82